Time;durP1;ratioP1;P1;durP2;ratioP2;P2;SDS_P1;SDS_P2;PMS_P1;PMS_P2;Temp;Humidity;BMP_temperature;BMP_pressure;BME280_temperature;BME280_humidity;BME280_pressure;Samples;Min_cycle;Max_cycle;Signal;HPM_P1;HPM_P2
2022/09/20 00:01:34;;;;;;;3.73;1.70;;;9.10;99.90;;;;;;4993309;28;20222;-66
2022/09/20 00:04:05;;;;;;;4.13;1.57;;;9.10;99.90;;;;;;4992591;28;20213;-66
2022/09/20 00:06:36;;;;;;;2.73;1.30;;;9.10;99.90;;;;;;4993488;28;20194;-67
2022/09/20 00:09:05;;;;;;;5.80;1.60;;;9.10;99.90;;;;;;4993418;28;20193;-67
2022/09/20 00:11:35;;;;;;;2.87;1.70;;;9.00;99.90;;;;;;4993382;28;20221;-66
2022/09/20 00:14:07;;;;;;;5.97;1.57;;;9.00;99.90;;;;;;4993431;28;20274;-67
2022/09/20 00:16:38;;;;;;;4.07;1.57;;;9.00;99.90;;;;;;4993323;28;20194;-67
2022/09/20 00:19:08;;;;;;;4.60;1.60;;;9.00;99.90;;;;;;4993190;28;20186;-66
2022/09/20 00:21:38;;;;;;;5.23;1.53;;;9.00;99.90;;;;;;4993083;28;20217;-67
2022/09/20 00:24:07;;;;;;;6.00;1.77;;;9.00;99.90;;;;;;4993338;28;20214;-67
2022/09/20 00:26:36;;;;;;;2.80;1.20;;;8.90;99.90;;;;;;4993216;28;20197;-66
2022/09/20 00:29:05;;;;;;;5.40;1.77;;;8.90;99.90;;;;;;4993146;28;20684;-67
2022/09/20 00:31:34;;;;;;;4.33;1.60;;;8.90;99.90;;;;;;4993092;28;20190;-67
2022/09/20 00:36:50;;;;;;;5.13;1.67;;;8.90;99.90;;;;;;4993093;28;20293;-67
2022/09/20 00:39:19;;;;;;;3.13;1.70;;;8.90;99.90;;;;;;4993062;28;20564;-66
2022/09/20 00:41:48;;;;;;;7.03;2.10;;;8.90;99.90;;;;;;4992866;28;20213;-68
2022/09/20 00:44:47;;;;;;;3.67;1.50;;;8.90;99.90;;;;;;4992861;28;20229;-68
2022/09/20 00:47:23;;;;;;;3.57;1.37;;;8.90;99.90;;;;;;4992910;28;20190;-66
2022/09/20 00:49:56;;;;;;;2.20;1.33;;;8.90;99.90;;;;;;4993005;28;20182;-66
2022/09/20 00:52:27;;;;;;;4.53;1.70;;;8.80;99.90;;;;;;4993110;28;20221;-67
2022/09/20 00:54:58;;;;;;;4.97;1.90;;;8.80;99.90;;;;;;4992615;28;20233;-69
2022/09/20 00:57:27;;;;;;;5.10;1.70;;;8.90;99.90;;;;;;4992846;28;20569;-68
2022/09/20 00:59:56;;;;;;;4.43;1.50;;;8.90;99.90;;;;;;4992716;28;20198;-67
2022/09/20 01:02:30;;;;;;;5.30;1.73;;;8.90;99.90;;;;;;4975342;28;20229;-66
2022/09/20 01:04:59;;;;;;;2.97;1.57;;;8.80;99.90;;;;;;4992337;28;20225;-66
2022/09/20 01:07:29;;;;;;;8.20;2.07;;;8.80;99.90;;;;;;4992751;28;20194;-67
2022/09/20 01:09:58;;;;;;;1.93;1.60;;;8.80;99.90;;;;;;4992543;28;20197;-68
2022/09/20 01:12:33;;;;;;;5.37;1.90;;;8.80;99.90;;;;;;4992731;28;20224;-67
2022/09/20 01:15:04;;;;;;;5.10;1.80;;;8.80;99.90;;;;;;4995015;28;20236;-67
2022/09/20 01:17:36;;;;;;;4.90;1.60;;;8.80;99.90;;;;;;4996685;28;20205;-67
2022/09/20 01:20:14;;;;;;;3.53;1.60;;;8.80;99.90;;;;;;4996559;28;20547;-67
2022/09/20 01:23:25;;;;;;;5.97;1.60;;;8.80;99.90;;;;;;4996286;28;20280;-67
2022/09/20 01:26:28;;;;;;;8.27;1.83;;;8.80;99.90;;;;;;4926247;29;20729;-67
2022/09/20 01:29:08;;;;;;;4.73;1.80;;;8.80;99.90;;;;;;4874024;29;20220;-66
2022/09/20 01:31:43;;;;;;;3.73;1.80;;;8.80;99.90;;;;;;4970991;28;20212;-66
2022/09/20 01:34:15;;;;;;;5.60;1.90;;;8.80;99.90;;;;;;4996191;28;20217;-66
2022/09/20 01:36:48;;;;;;;5.20;1.93;;;8.80;99.90;;;;;;4996271;28;20186;-66
2022/09/20 01:39:26;;;;;;;3.80;2.07;;;8.70;99.90;;;;;;4996111;28;20190;-66
2022/09/20 01:41:58;;;;;;;5.70;1.97;;;8.80;99.90;;;;;;4995614;28;20220;-66
2022/09/20 01:44:38;;;;;;;5.90;1.60;;;8.80;99.90;;;;;;4995453;28;20253;-66
2022/09/20 01:47:15;;;;;;;6.67;1.70;;;8.80;99.90;;;;;;4996181;28;20228;-66
2022/09/20 01:49:54;;;;;;;3.03;1.73;;;8.80;99.90;;;;;;4995971;28;20561;-66
2022/09/20 01:52:58;;;;;;;4.90;1.83;;;8.80;99.90;;;;;;4995998;28;20190;-66
2022/09/20 01:56:00;;;;;;;11.37;2.20;;;8.90;99.90;;;;;;4995944;28;20213;-66
2022/09/20 01:59:13;;;;;;;6.17;1.83;;;8.80;99.90;;;;;;4995854;28;20209;-66
2022/09/20 02:02:09;;;;;;;7.17;2.10;;;8.80;99.90;;;;;;4935553;29;20211;-67
2022/09/20 02:05:20;;;;;;;3.50;1.80;;;8.90;99.90;;;;;;4935495;29;20247;-66
2022/09/20 02:08:07;;;;;;;5.10;1.70;;;8.90;99.90;;;;;;4933523;29;20208;-66
2022/09/20 02:10:56;;;;;;;5.70;2.07;;;8.80;99.90;;;;;;4949958;28;20217;-66
2022/09/20 02:13:32;;;;;;;9.40;1.83;;;8.80;99.90;;;;;;4993447;28;20224;-66
2022/09/20 02:16:30;;;;;;;2.40;1.50;;;8.80;99.90;;;;;;4995454;28;20182;-66
2022/09/20 02:19:29;;;;;;;8.67;2.17;;;8.80;99.90;;;;;;4990932;28;20202;-67
2022/09/20 02:22:10;;;;;;;4.60;1.90;;;8.80;99.90;;;;;;4995293;28;20181;-67
2022/09/20 02:24:48;;;;;;;5.17;2.20;;;8.90;99.90;;;;;;4995169;28;20582;-67
2022/09/20 02:27:26;;;;;;;7.80;2.40;;;8.80;99.90;;;;;;4994284;28;20215;-67
2022/09/20 02:30:08;;;;;;;3.70;1.90;;;8.90;99.90;;;;;;4995183;28;20661;-68
2022/09/20 02:32:57;;;;;;;6.27;2.50;;;8.90;99.90;;;;;;4995143;28;20270;-67
2022/09/20 02:35:45;;;;;;;4.67;2.17;;;8.90;99.90;;;;;;4993800;28;20670;-67
2022/09/20 02:38:33;;;;;;;6.20;2.50;;;8.90;99.90;;;;;;4995115;28;20195;-66
2022/09/20 02:41:29;;;;;;;6.40;2.40;;;8.90;99.90;;;;;;4994938;28;20194;-66
2022/09/20 02:44:07;;;;;;;6.23;2.23;;;8.90;99.90;;;;;;4989294;28;20616;-66
2022/09/20 02:46:45;;;;;;;4.47;1.80;;;8.90;99.90;;;;;;4994922;28;20553;-67
2022/09/20 02:49:22;;;;;;;5.27;2.03;;;8.90;99.90;;;;;;4994524;28;20213;-67
2022/09/20 02:51:57;;;;;;;5.83;1.90;;;8.90;99.90;;;;;;4994884;28;20205;-67
2022/09/20 02:54:37;;;;;;;4.10;1.90;;;8.90;99.90;;;;;;4994593;28;20225;-67
2022/09/20 02:57:14;;;;;;;7.47;2.33;;;8.90;99.90;;;;;;4994642;28;20190;-57
2022/09/20 02:59:49;;;;;;;7.87;2.27;;;9.00;99.90;;;;;;4994694;28;20194;-67
2022/09/20 03:02:26;;;;;;;5.03;1.97;;;9.00;99.90;;;;;;4994622;28;20539;-66
2022/09/20 03:05:09;;;;;;;6.80;2.20;;;9.00;99.90;;;;;;4993672;28;20244;-66
2022/09/20 03:07:54;;;;;;;6.77;2.30;;;9.00;99.90;;;;;;4994444;28;20182;-64
2022/09/20 03:10:29;;;;;;;7.77;2.27;;;8.90;99.90;;;;;;4994636;28;20197;-65
2022/09/20 03:13:13;;;;;;;8.50;2.57;;;8.90;99.90;;;;;;4994490;28;20562;-65
2022/09/20 03:15:57;;;;;;;7.97;2.27;;;8.90;99.90;;;;;;4994453;28;20197;-66
2022/09/20 03:18:34;;;;;;;4.93;2.10;;;8.90;99.90;;;;;;4994480;28;20190;-66
2022/09/20 03:21:21;;;;;;;4.63;2.10;;;8.90;99.90;;;;;;4994517;28;20190;-67
2022/09/20 03:24:03;;;;;;;6.63;2.10;;;8.90;99.90;;;;;;4994348;28;20229;-67
2022/09/20 03:26:41;;;;;;;8.50;2.60;;;8.90;99.90;;;;;;4994340;28;20190;-65
2022/09/20 03:29:24;;;;;;;9.40;2.57;;;8.90;99.90;;;;;;4994147;28;20662;-64
2022/09/20 03:32:12;;;;;;;7.47;2.43;;;8.90;99.90;;;;;;4994162;28;20670;-65
2022/09/20 03:34:54;;;;;;;5.03;2.43;;;8.80;99.90;;;;;;4994004;28;20221;-66
2022/09/20 03:37:40;;;;;;;7.67;2.70;;;8.80;99.90;;;;;;4993664;28;20552;-66
2022/09/20 03:40:43;;;;;;;8.57;2.20;;;8.80;99.90;;;;;;4993949;28;20201;-65
2022/09/20 03:43:26;;;;;;;6.53;2.83;;;8.80;99.90;;;;;;4993956;28;20331;-66
2022/09/20 03:46:08;;;;;;;12.77;3.20;;;8.80;99.90;;;;;;4993858;28;20212;-66
2022/09/20 03:49:14;;;;;;;5.83;2.67;;;8.70;99.90;;;;;;4993817;28;20194;-65
2022/09/20 03:51:54;;;;;;;8.73;2.60;;;8.70;99.90;;;;;;4993796;28;20661;-65
2022/09/20 03:55:08;;;;;;;6.70;2.50;;;8.70;99.90;;;;;;4993739;28;20236;-67
2022/09/20 03:58:09;;;;;;;5.27;2.10;;;8.70;99.90;;;;;;4978962;28;20217;-66
2022/09/20 04:00:52;;;;;;;6.80;2.17;;;8.70;99.90;;;;;;4993459;28;20606;-66
2022/09/20 04:03:30;;;;;;;6.93;2.50;;;8.70;99.90;;;;;;4993475;28;20523;-66
2022/09/20 04:06:17;;;;;;;10.87;3.03;;;8.60;99.90;;;;;;4993286;28;20214;-66
2022/09/20 04:09:00;;;;;;;5.83;2.87;;;8.60;99.90;;;;;;4993493;28;20197;-67
2022/09/20 04:11:37;;;;;;;6.37;2.67;;;8.60;99.90;;;;;;4993387;28;20182;-65
2022/09/20 04:14:16;;;;;;;7.93;3.07;;;8.50;99.90;;;;;;4993212;28;20228;-66
2022/09/20 04:16:53;;;;;;;8.37;3.33;;;8.60;99.90;;;;;;4993312;28;20201;-66
2022/09/20 04:19:27;;;;;;;6.23;3.03;;;8.50;99.90;;;;;;4993382;28;20181;-66
2022/09/20 04:22:02;;;;;;;7.97;3.60;;;8.40;99.90;;;;;;4993356;28;20190;-67
2022/09/20 04:24:40;;;;;;;7.67;3.00;;;8.40;99.90;;;;;;4993038;28;20240;-66
2022/09/20 04:27:15;;;;;;;10.43;4.17;;;8.40;99.90;;;;;;4993075;28;20186;-67
2022/09/20 04:29:53;;;;;;;7.63;3.80;;;8.40;99.90;;;;;;4993136;28;20197;-65
2022/09/20 04:32:27;;;;;;;11.97;3.50;;;8.40;99.90;;;;;;4993242;28;20197;-65
2022/09/20 04:37:51;;;;;;;9.43;4.07;;;8.40;99.90;;;;;;4992973;28;20197;-66
2022/09/20 04:40:32;;;;;;;9.03;4.00;;;8.40;99.90;;;;;;4992615;28;20228;-66
2022/09/20 04:43:31;;;;;;;8.73;3.63;;;8.40;99.90;;;;;;4993046;28;20189;-66
2022/09/20 04:46:48;;;;;;;6.17;3.37;;;8.30;99.90;;;;;;4992848;28;20594;-66
2022/09/20 04:49:52;;;;;;;7.53;3.70;;;8.30;99.90;;;;;;4994431;28;20535;-66
2022/09/20 04:52:54;;;;;;;7.27;3.80;;;8.30;99.90;;;;;;4997162;28;20213;-65
2022/09/20 04:55:39;;;;;;;6.27;3.70;;;8.30;99.90;;;;;;4996504;28;20221;-65
2022/09/20 04:58:45;;;;;;;11.63;4.33;;;8.30;99.90;;;;;;4996863;28;20195;-66
2022/09/20 05:01:57;;;;;;;8.87;4.13;;;8.30;99.90;;;;;;4996722;28;20214;-66
2022/09/20 05:05:07;;;;;;;8.80;4.03;;;8.30;99.90;;;;;;4937207;29;20700;-66
2022/09/20 05:08:32;;;;;;;10.47;4.40;;;8.30;99.90;;;;;;4917548;29;20360;-67
2022/09/20 05:11:45;;;;;;;5.57;4.07;;;8.30;99.90;;;;;;4996768;28;20548;-67
2022/09/20 05:14:40;;;;;;;10.77;4.90;;;8.40;99.90;;;;;;4964150;28;20230;-65
2022/09/20 05:17:30;;;;;;;10.97;4.60;;;8.40;99.90;;;;;;4996622;28;20194;-66
2022/09/20 05:20:35;;;;;;;10.93;5.67;;;8.50;99.90;;;;;;4996469;28;20182;-67
2022/09/20 05:23:41;;;;;;;10.37;5.53;;;8.50;99.90;;;;;;4996540;28;20193;-67
2022/09/20 05:26:14;;;;;;;10.60;5.37;;;8.50;99.90;;;;;;4996252;28;20289;-67
2022/09/20 05:28:54;;;;;;;13.90;6.30;;;8.50;99.90;;;;;;4996519;28;20186;-65
2022/09/20 05:31:36;;;;;;;12.43;5.70;;;8.60;99.90;;;;;;4996436;28;20186;-65
2022/09/20 05:34:20;;;;;;;8.57;5.93;;;8.70;99.90;;;;;;4996300;28;20223;-66
2022/09/20 05:36:57;;;;;;;13.57;6.30;;;8.70;99.90;;;;;;4996236;28;20194;-66
2022/09/20 05:39:36;;;;;;;10.67;6.57;;;8.70;99.90;;;;;;4996281;28;20668;-66
2022/09/20 05:42:17;;;;;;;13.53;7.80;;;8.70;99.90;;;;;;4996220;28;20186;-65
2022/09/20 05:44:57;;;;;;;10.90;6.03;;;8.70;99.90;;;;;;4996114;28;20727;-65
2022/09/20 05:47:35;;;;;;;8.77;6.20;;;8.80;99.90;;;;;;4995631;28;20210;-68
2022/09/20 05:50:31;;;;;;;15.00;6.70;;;8.70;99.90;;;;;;4996067;28;20186;-66
2022/09/20 05:53:28;;;;;;;10.07;5.80;;;8.80;99.90;;;;;;4995990;28;20205;-67
2022/09/20 05:56:07;;;;;;;10.50;5.53;;;8.80;99.90;;;;;;4995922;28;20201;-66
2022/09/20 05:58:52;;;;;;;12.90;5.37;;;8.80;99.90;;;;;;4995971;28;20639;-66
2022/09/20 06:01:26;;;;;;;16.03;6.50;;;8.80;99.90;;;;;;4995568;28;20198;-66
2022/09/20 06:04:07;;;;;;;10.03;6.20;;;8.90;99.90;;;;;;4995770;28;20225;-65
2022/09/20 06:06:52;;;;;;;11.37;5.33;;;8.80;99.90;;;;;;4995621;28;20747;-66
2022/09/20 06:09:36;;;;;;;10.33;5.37;;;8.90;99.90;;;;;;4995503;28;20202;-66
2022/09/20 06:12:22;;;;;;;10.43;5.50;;;8.80;99.90;;;;;;4995676;28;20199;-66
2022/09/20 06:15:00;;;;;;;14.03;5.77;;;8.90;99.90;;;;;;4995458;28;20218;-67
2022/09/20 06:17:36;;;;;;;10.93;5.43;;;8.90;99.90;;;;;;4995507;28;20545;-66
2022/09/20 06:20:20;;;;;;;10.57;5.30;;;8.90;99.90;;;;;;4995467;28;20181;-65
2022/09/20 06:22:54;;;;;;;11.50;5.43;;;9.00;99.90;;;;;;4995220;28;20205;-66
2022/09/20 06:25:28;;;;;;;8.37;6.07;;;9.00;99.90;;;;;;4995280;28;20217;-66
2022/09/20 06:28:05;;;;;;;10.10;5.83;;;9.00;99.90;;;;;;4995213;28;20202;-66
2022/09/20 06:30:37;;;;;;;14.03;5.77;;;9.10;99.90;;;;;;4994832;28;20206;-66
2022/09/20 06:33:15;;;;;;;13.93;5.33;;;9.10;99.90;;;;;;4995256;28;20547;-65
2022/09/20 06:35:49;;;;;;;15.77;6.07;;;9.10;99.90;;;;;;4995112;28;20194;-67
2022/09/20 06:41:29;;;;;;;15.67;7.00;;;9.20;99.90;;;;;;4994969;28;20194;-69
2022/09/20 06:44:00;;;;;;;10.57;6.10;;;9.30;99.90;;;;;;4977606;28;20580;-67
2022/09/20 06:46:31;;;;;;;14.93;6.13;;;9.30;99.90;;;;;;4994831;28;20214;-66
2022/09/20 06:49:00;;;;;;;13.47;5.90;;;9.30;99.90;;;;;;4994908;28;20210;-68
2022/09/20 06:51:35;;;;;;;12.23;5.37;;;9.30;99.90;;;;;;4994756;28;20190;-66
2022/09/20 06:54:10;;;;;;;13.00;5.93;;;9.30;99.90;;;;;;4994858;28;20228;-67
2022/09/20 06:56:38;;;;;;;12.13;6.00;;;9.30;99.90;;;;;;4994730;28;20193;-67
2022/09/20 06:59:09;;;;;;;13.10;5.37;;;9.40;99.90;;;;;;4994679;28;20209;-66
2022/09/20 07:01:38;;;;;;;11.77;5.60;;;9.40;99.90;;;;;;4994497;28;20286;-67
2022/09/20 07:04:08;;;;;;;13.43;5.33;;;9.50;99.90;;;;;;4994511;28;20221;-68
2022/09/20 07:06:37;;;;;;;12.33;5.73;;;9.50;99.90;;;;;;4993962;28;20256;-68
2022/09/20 07:09:07;;;;;;;15.20;5.47;;;9.60;99.90;;;;;;4994550;28;20225;-66
2022/09/20 07:11:36;;;;;;;11.17;5.57;;;9.60;99.90;;;;;;4994062;28;20527;-66
2022/09/20 07:14:06;;;;;;;23.70;15.87;;;9.60;99.90;;;;;;4994372;28;20595;-65
2022/09/20 07:16:36;;;;;;;18.90;10.47;;;9.60;99.90;;;;;;4994460;28;20193;-66
2022/09/20 07:19:05;;;;;;;18.03;12.23;;;9.60;99.90;;;;;;4994367;28;20198;-65
2022/09/20 07:21:34;;;;;;;9.77;5.60;;;9.70;99.90;;;;;;4994265;28;20201;-67
2022/09/20 07:24:03;;;;;;;8.77;4.57;;;9.70;99.90;;;;;;4994081;28;20213;-67
2022/09/20 07:26:33;;;;;;;10.53;5.60;;;9.80;99.90;;;;;;4993963;28;20226;-67
2022/09/20 07:29:02;;;;;;;12.03;5.90;;;9.90;99.90;;;;;;4994170;28;20189;-66
2022/09/20 07:31:31;;;;;;;15.87;5.93;;;10.00;99.90;;;;;;4993991;28;20201;-66
2022/09/20 07:33:59;;;;;;;11.83;5.63;;;10.10;99.90;;;;;;4993835;28;20217;-66
2022/09/20 07:36:28;;;;;;;22.33;10.83;;;10.20;99.90;;;;;;4993923;28;20688;-67
2022/09/20 07:38:57;;;;;;;13.77;5.57;;;10.20;99.90;;;;;;4993911;28;20213;-68
2022/09/20 07:41:28;;;;;;;11.10;5.10;;;10.20;99.90;;;;;;4993944;28;20198;-66
2022/09/20 07:44:19;;;;;;;13.67;6.13;;;10.20;99.90;;;;;;4993832;28;20285;-67
2022/09/20 07:46:48;;;;;;;11.73;4.70;;;10.30;99.90;;;;;;4993724;28;20218;-68
2022/09/20 07:49:16;;;;;;;14.53;6.27;;;10.30;99.90;;;;;;4993810;28;20194;-66
2022/09/20 07:51:45;;;;;;;10.37;4.43;;;10.30;99.90;;;;;;4993694;28;20651;-68
2022/09/20 07:54:14;;;;;;;10.17;4.33;;;10.40;99.90;;;;;;4993639;28;20722;-66
2022/09/20 07:56:44;;;;;;;11.10;5.77;;;10.50;99.90;;;;;;4993594;28;20212;-68
2022/09/20 07:59:14;;;;;;;8.50;3.00;;;10.60;99.90;;;;;;4993657;28;20193;-68
2022/09/20 08:01:43;;;;;;;8.67;3.20;;;10.60;99.90;;;;;;4993462;28;20213;-67
2022/09/20 08:04:13;;;;;;;14.50;3.90;;;10.80;99.90;;;;;;4993471;28;20236;-68
2022/09/20 08:06:44;;;;;;;12.50;3.47;;;11.00;99.90;;;;;;4993333;28;20217;-68
2022/09/20 08:09:13;;;;;;;14.37;3.10;;;10.90;99.90;;;;;;4994013;28;20190;-67
2022/09/20 08:11:44;;;;;;;9.88;3.22;;;10.90;99.90;;;;;;4993669;28;20257;-67
2022/09/20 08:14:15;;;;;;;12.77;3.80;;;10.90;99.90;;;;;;4992792;28;20230;-68
2022/09/20 08:16:47;;;;;;;9.13;2.95;;;11.00;99.90;;;;;;4993337;28;20549;-67
2022/09/20 08:19:18;;;;;;;9.30;2.97;;;11.10;99.90;;;;;;4993321;28;20669;-67
2022/09/20 08:21:47;;;;;;;10.30;3.17;;;11.10;99.90;;;;;;4993241;28;20670;-66
2022/09/20 08:24:17;;;;;;;10.13;2.80;;;11.00;99.90;;;;;;4992444;28;20213;-67
2022/09/20 08:26:47;;;;;;;8.75;3.28;;;11.00;99.90;;;;;;4993129;28;20669;-67
2022/09/20 08:29:17;;;;;;;14.18;3.47;;;11.10;99.90;;;;;;4993114;28;20194;-66
2022/09/20 08:31:46;;;;;;;6.97;2.85;;;11.20;99.90;;;;;;4993238;28;20198;-66
2022/09/20 08:34:17;;;;;;;8.52;2.58;;;11.30;99.90;;;;;;4993030;28;20332;-68
2022/09/20 08:36:50;;;;;;;9.27;2.90;;;11.30;99.90;;;;;;4993131;28;20190;-68
2022/09/20 08:39:20;;;;;;;9.60;2.63;;;11.40;99.90;;;;;;4993021;28;20659;-68
2022/09/20 08:42:18;;;;;;;9.40;2.30;;;11.50;99.90;;;;;;4992616;28;21012;-69
2022/09/20 08:44:51;;;;;;;8.50;2.38;;;11.50;99.90;;;;;;4992945;28;20226;-67
2022/09/20 08:47:30;;;;;;;9.98;2.80;;;11.50;99.90;;;;;;4992927;28;20233;-71
2022/09/20 08:50:03;;;;;;;8.18;2.92;;;11.60;99.90;;;;;;4992916;28;20275;-68
2022/09/20 08:52:48;;;;;;;10.80;2.60;;;11.60;99.90;;;;;;4993012;28;20190;-67
2022/09/20 08:55:18;;;;;;;6.03;2.40;;;11.60;99.90;;;;;;4992825;28;20225;-67
2022/09/20 08:57:49;;;;;;;8.95;2.38;;;11.80;99.90;;;;;;4992917;28;20569;-67
2022/09/20 09:00:21;;;;;;;11.00;2.95;;;11.90;99.90;;;;;;4992789;28;20684;-69
2022/09/20 09:02:51;;;;;;;7.95;2.50;;;12.00;99.90;;;;;;4992898;28;20194;-69
2022/09/20 09:05:34;;;;;;;8.32;2.40;;;12.20;99.90;;;;;;4992642;28;20221;-68
2022/09/20 09:08:07;;;;;;;6.93;2.00;;;12.40;99.90;;;;;;4992969;28;20217;-68
2022/09/20 09:10:38;;;;;;;8.15;2.35;;;12.70;99.90;;;;;;4992887;28;20186;-67
2022/09/20 09:13:27;;;;;;;8.48;2.22;;;12.60;99.90;;;;;;4975278;28;20567;-69
2022/09/20 09:16:00;;;;;;;9.48;2.10;;;12.60;99.90;;;;;;4992832;28;20537;-68
2022/09/20 09:18:33;;;;;;;9.82;2.30;;;12.60;99.90;;;;;;4992694;28;20186;-69
2022/09/20 09:21:04;;;;;;;7.78;2.38;;;12.50;99.90;;;;;;4992579;28;20178;-67
2022/09/20 09:23:40;;;;;;;9.52;2.45;;;12.50;99.90;;;;;;4992851;28;20221;-68
2022/09/20 09:26:18;;;;;;;8.13;2.42;;;12.30;99.90;;;;;;4992277;28;20684;-67
2022/09/20 09:28:48;;;;;;;8.70;2.70;;;12.20;99.90;;;;;;4975346;28;20225;-68
2022/09/20 09:31:25;;;;;;;8.30;2.10;;;12.00;99.90;;;;;;4992564;28;20194;-67
2022/09/20 09:33:54;;;;;;;5.22;1.67;;;12.00;99.90;;;;;;4992479;28;20224;-67
2022/09/20 09:36:25;;;;;;;7.15;2.08;;;11.90;99.90;;;;;;4995299;28;20198;-68
2022/09/20 09:39:15;;;;;;;7.75;1.88;;;11.70;99.90;;;;;;4996235;28;20190;-67
2022/09/20 09:41:45;;;;;;;6.75;2.03;;;11.60;99.90;;;;;;4996414;28;20186;-68
2022/09/20 09:44:23;;;;;;;7.65;2.20;;;11.50;99.90;;;;;;4996095;28;20221;-69
2022/09/20 09:46:53;;;;;;;8.23;2.22;;;11.70;99.90;;;;;;4996028;28;20202;-69
2022/09/20 09:49:24;;;;;;;9.18;1.90;;;11.90;99.90;;;;;;4995893;28;20217;-69
2022/09/20 09:52:06;;;;;;;4.15;1.83;;;12.20;99.90;;;;;;4995951;28;20792;-68
2022/09/20 09:54:37;;;;;;;10.52;2.20;;;12.50;99.90;;;;;;4995886;28;20574;-68
2022/09/20 09:57:19;;;;;;;5.55;1.77;;;12.80;99.90;;;;;;4995898;28;20202;-69
2022/09/20 10:00:05;;;;;;;6.53;1.98;;;13.10;99.90;;;;;;4995914;28;20678;-68
2022/09/20 10:03:07;;;;;;;12.23;2.00;;;13.20;99.90;;;;;;4995873;28;20285;-67
2022/09/20 10:05:43;;;;;;;7.93;1.77;;;13.00;99.90;;;;;;4995734;28;20701;-68
2022/09/20 10:08:23;;;;;;;5.68;2.08;;;12.90;99.90;;;;;;4995648;28;20289;-69
2022/09/20 10:11:06;;;;;;;8.20;1.77;;;12.80;99.90;;;;;;4995500;28;20662;-69
2022/09/20 10:13:42;;;;;;;6.38;1.80;;;12.90;99.90;;;;;;4995521;28;20221;-69
2022/09/20 10:16:20;;;;;;;4.72;1.63;;;13.00;99.90;;;;;;4995578;28;20198;-69
2022/09/20 10:18:59;;;;;;;3.38;1.52;;;13.00;99.90;;;;;;4995457;28;20217;-69
2022/09/20 10:21:42;;;;;;;8.75;1.67;;;12.90;99.90;;;;;;4995257;28;20670;-69
2022/09/20 10:24:21;;;;;;;4.88;1.75;;;12.80;99.90;;;;;;4995261;28;20221;-69
2022/09/20 10:27:07;;;;;;;5.97;1.65;;;12.60;99.90;;;;;;4995309;28;20182;-69
2022/09/20 10:29:45;;;;;;;8.15;1.50;;;12.30;99.90;;;;;;4995207;28;20213;-69
2022/09/20 10:32:27;;;;;;;4.80;1.55;;;12.20;99.90;;;;;;4995204;28;20202;-68
2022/09/20 10:35:15;;;;;;;3.47;1.48;;;12.20;99.90;;;;;;4978115;28;20593;-68
2022/09/20 10:37:59;;;;;;;5.10;1.70;;;12.20;99.90;;;;;;4995221;28;20197;-69
2022/09/20 10:43:30;;;;;;;7.28;2.13;;;12.50;99.90;;;;;;4994029;28;20658;-70
2022/09/20 10:46:09;;;;;;;7.25;1.92;;;12.60;99.90;;;;;;4994795;28;20566;-69
2022/09/20 10:49:04;;;;;;;7.88;2.53;;;12.80;99.90;;;;;;4994059;28;20248;-68
2022/09/20 10:51:46;;;;;;;6.60;1.77;;;12.80;99.90;;;;;;4994787;28;20193;-69
2022/09/20 10:54:26;;;;;;;8.07;2.22;;;12.80;99.90;;;;;;4994871;28;20209;-67
2022/09/20 10:57:08;;;;;;;7.90;2.10;;;12.70;99.90;;;;;;4994818;28;20193;-69
2022/09/20 10:59:50;;;;;;;5.90;1.77;;;12.80;99.90;;;;;;4994438;28;20559;-68
2022/09/20 11:02:35;;;;;;;7.75;1.92;;;12.90;99.90;;;;;;4994716;28;20197;-71
2022/09/20 11:05:20;;;;;;;6.28;1.67;;;13.10;99.90;;;;;;4994592;28;20218;-68
2022/09/20 11:08:01;;;;;;;7.95;1.90;;;13.20;99.90;;;;;;4994582;28;20700;-70
2022/09/20 11:10:36;;;;;;;7.85;1.90;;;13.20;99.90;;;;;;4994391;28;20222;-69
2022/09/20 11:13:10;;;;;;;4.53;2.00;;;13.10;99.90;;;;;;4994242;28;20258;-69
2022/09/20 11:15:45;;;;;;;5.20;1.70;;;12.90;99.90;;;;;;4994347;28;20217;-68
2022/09/20 11:18:22;;;;;;;5.72;1.40;;;12.80;99.90;;;;;;4994416;28;20197;-68
2022/09/20 11:20:58;;;;;;;8.43;1.65;;;12.90;99.90;;;;;;4994270;28;20190;-69
2022/09/20 11:23:45;;;;;;;7.90;1.85;;;13.10;99.90;;;;;;4994257;28;20185;-69
2022/09/20 11:26:18;;;;;;;4.93;1.60;;;13.40;99.90;;;;;;4994544;28;20261;-68
2022/09/20 11:28:50;;;;;;;7.95;2.15;;;13.70;99.90;;;;;;4994073;28;20194;-69
2022/09/20 11:31:24;;;;;;;6.18;1.75;;;13.70;99.90;;;;;;4994181;28;20639;-70
2022/09/20 11:33:58;;;;;;;6.93;1.75;;;13.70;99.90;;;;;;4993946;28;20224;-69
2022/09/20 11:36:32;;;;;;;7.55;2.15;;;13.50;99.90;;;;;;4994024;28;20189;-68
2022/09/20 11:39:06;;;;;;;6.90;1.77;;;13.50;99.90;;;;;;4992772;28;20189;-70
2022/09/20 11:41:35;;;;;;;8.13;2.28;;;13.50;99.90;;;;;;4993880;28;20193;-70
2022/09/20 11:44:09;;;;;;;7.47;3.00;;;13.80;99.90;;;;;;4993809;28;20217;-69
2022/09/20 11:46:44;;;;;;;8.80;2.22;;;14.00;99.90;;;;;;4993922;28;20189;-69
2022/09/20 11:49:16;;;;;;;4.53;1.65;;;14.20;99.90;;;;;;4993671;28;20236;-69
2022/09/20 11:52:14;;;;;;;3.47;1.30;;;14.50;99.90;;;;;;4993054;28;20202;-69
2022/09/20 11:55:11;;;;;;;4.63;1.60;;;14.70;99.90;;;;;;4993570;28;20229;-69
2022/09/20 11:57:40;;;;;;;5.40;1.60;;;14.80;99.90;;;;;;4993459;28;20559;-68
2022/09/20 12:00:10;;;;;;;3.65;1.27;;;14.70;99.90;;;;;;4993419;28;20209;-69
2022/09/20 12:02:47;;;;;;;3.67;1.23;;;14.50;99.90;;;;;;4993508;28;20189;-68
2022/09/20 12:05:29;;;;;;;5.20;1.50;;;14.00;99.90;;;;;;4993534;28;20217;-69
2022/09/20 12:07:59;;;;;;;5.43;1.33;;;13.80;99.90;;;;;;4993613;28;20218;-68
2022/09/20 12:10:32;;;;;;;2.40;1.13;;;13.60;99.90;;;;;;4993426;28;20213;-68
2022/09/20 12:13:04;;;;;;;4.32;1.38;;;13.50;99.90;;;;;;4993322;28;20186;-68
2022/09/20 12:15:35;;;;;;;2.83;1.30;;;13.30;99.90;;;;;;4993327;28;20213;-68
2022/09/20 12:18:31;;;;;;;3.95;1.20;;;13.10;99.90;;;;;;4993301;28;20190;-68
2022/09/20 12:21:12;;;;;;;4.35;1.40;;;12.80;99.90;;;;;;4992230;28;20204;-68
2022/09/20 12:24:13;;;;;;;3.25;1.30;;;12.60;99.90;;;;;;4993167;28;20686;-68
2022/09/20 12:26:45;;;;;;;6.30;2.03;;;12.60;99.90;;;;;;4993224;28;20197;-69
2022/09/20 12:29:51;;;;;;;3.28;1.70;;;12.60;99.90;;;;;;4993147;28;20193;-68
2022/09/20 12:32:44;;;;;;;4.80;1.48;;;12.70;99.90;;;;;;4993078;28;20661;-70
2022/09/20 12:35:59;;;;;;;4.20;1.20;;;13.20;99.90;;;;;;4991794;28;20236;-71
2022/09/20 12:38:38;;;;;;;2.92;1.00;;;13.80;99.90;;;;;;4989177;28;20201;-68
2022/09/20 12:41:13;;;;;;;1.90;1.00;;;13.90;99.90;;;;;;4993008;28;20190;-69
2022/09/20 12:44:03;;;;;;;3.15;1.13;;;13.90;99.90;;;;;;4982172;28;20226;-68
2022/09/20 12:46:43;;;;;;;4.22;1.20;;;14.00;99.90;;;;;;4991411;28;20212;-68
2022/09/20 12:52:59;;;;;;;2.17;0.93;;;14.40;99.90;;;;;;4983384;28;20193;-69
2022/09/20 12:55:44;;;;;;;2.33;1.00;;;14.60;99.90;;;;;;4979196;28;20217;-70
2022/09/20 12:58:40;;;;;;;4.68;1.42;;;14.80;99.90;;;;;;4992892;28;20205;-69
2022/09/20 13:01:33;;;;;;;2.70;1.15;;;15.00;99.90;;;;;;4991128;28;20217;-68
2022/09/20 13:04:54;;;;;;;3.60;1.10;;;15.40;99.90;;;;;;4992863;28;20693;-69
2022/09/20 13:07:55;;;;;;;4.15;1.55;;;15.60;99.90;;;;;;4993142;28;20190;-69
2022/09/20 13:10:36;;;;;;;3.97;1.30;;;15.80;99.90;;;;;;4994211;28;20213;-69
2022/09/20 13:13:26;;;;;;;3.60;1.10;;;15.90;99.90;;;;;;4996936;28;20194;-70
2022/09/20 13:15:56;;;;;;;5.30;1.30;;;15.90;99.90;;;;;;4995574;28;20202;-69
2022/09/20 13:18:28;;;;;;;3.72;1.45;;;16.00;99.90;;;;;;4995448;28;20658;-69
2022/09/20 13:20:59;;;;;;;7.20;1.50;;;16.20;99.90;;;;;;4994937;28;20194;-70
2022/09/20 13:23:32;;;;;;;5.35;1.60;;;16.20;99.90;;;;;;4992529;28;20197;-68
2022/09/20 13:26:03;;;;;;;2.97;1.50;;;16.20;99.90;;;;;;4995423;28;20549;-71
2022/09/20 13:28:37;;;;;;;3.88;1.17;;;16.30;99.90;;;;;;4987112;28;20683;-70
2022/09/20 13:31:26;;;;;;;4.55;1.33;;;16.40;99.90;;;;;;4976891;28;20592;-70
2022/09/20 13:34:13;;;;;;;4.50;1.20;;;16.50;99.90;;;;;;4990338;28;20927;-70
2022/09/20 13:36:42;;;;;;;2.08;1.30;;;16.50;99.90;;;;;;4988562;28;20201;-70
2022/09/20 13:39:24;;;;;;;2.60;1.08;;;16.60;99.90;;;;;;4976841;28;20206;-71
2022/09/20 13:41:53;;;;;;;3.30;1.40;;;16.60;99.90;;;;;;4995985;28;20208;-69
2022/09/20 13:44:24;;;;;;;5.50;1.42;;;16.50;99.60;;;;;;4991084;28;20693;-71
2022/09/20 13:46:53;;;;;;;4.65;1.25;;;16.50;99.90;;;;;;4989199;28;20557;-69
2022/09/20 13:49:23;;;;;;;6.85;1.55;;;16.50;98.90;;;;;;4995845;28;20666;-70
2022/09/20 13:51:52;;;;;;;5.32;1.48;;;16.60;99.40;;;;;;4976388;28;20222;-70
2022/09/20 13:54:29;;;;;;;3.05;1.13;;;16.70;99.40;;;;;;4978136;28;20225;-69
2022/09/20 13:57:00;;;;;;;3.13;1.13;;;16.70;98.10;;;;;;4994489;28;20208;-69
2022/09/20 13:59:33;;;;;;;6.57;1.23;;;16.70;97.90;;;;;;4986941;28;20205;-69
2022/09/20 14:02:03;;;;;;;3.15;1.02;;;16.70;98.00;;;;;;4976451;28;20213;-69
2022/09/20 14:04:34;;;;;;;3.08;1.00;;;16.70;98.20;;;;;;4992250;28;20225;-69
2022/09/20 14:07:07;;;;;;;7.80;1.48;;;16.80;98.00;;;;;;4994379;28;20545;-69
2022/09/20 14:09:38;;;;;;;2.78;1.33;;;16.60;97.20;;;;;;4985364;28;20195;-69